VTSP/HKT METAR and TAF weather

Enter ICAO airport designator
Station Type Date Time Source
VTSP METAR 2022/11/30 18:00 UTC NOAA

VTSP 301800Z VRB01KT 9999 FEW020 25/24 Q1009 NOSIG


Station Type Date Time Source
VTSP Decoded METAR 2022/11/30 18:00 UTC NOAA

Phuket Airport, Thailand (VTSP) 08-07N 098-19E 10M
Nov 30, 2022 - 01:00 PM EST / 2022.11.30 1800 UTC
Wind: Variable at 1 MPH (1 KT):0
Visibility: greater than 7 mile(s):0
Sky conditions: mostly clear
Temperature: 77 F (25 C)
Dew Point: 75 F (24 C)
Relative Humidity: 94%
Pressure (altimeter): 29.80 in. Hg (1009 hPa)
ob: VTSP 301800Z VRB01KT 9999 FEW020 25/24 Q1009 NOSIG
cycle: 18

Station Type Date Time Source
VTSP TAF 2022/11/30 18:36 UTC NOAA

TAF VTSP 301700Z 3018/0124 00000KT 9999 FEW020
BECMG 3020/3024 08008KT
TEMPO 0106/0114 30015G25KT 3000 TSRA FEW018CB SCT020 BKN100

Example: see airport list